Logan - 24 Hour Table
Date & TimeSolar
Radiation
(W/m²)
Wind
Speed
(mph)
Wind
Direction
(degrees)
Air
Temperature
(°F)
Relative
Humidity
(%)
Precipitation
(inches)
Barometric
Pressure
(inHg)
2017/12/15 18:00 0 0.5 51 27.4 86 0.00 30.06
2017/12/15 17:00 28 1.6 196 28.8 79 0.00 30.07
2017/12/15 16:00 127 2.1 215 29.5 80 0.00 30.09
2017/12/15 15:00 227 1.0 221 31.0 77 0.00 30.12
2017/12/15 14:00 317 0.7 245 28.0 76 0.00 30.15
2017/12/15 13:00 319 1.0 223 24.4 85 0.00 30.18
2017/12/15 12:00 299 0.6 224 20.2 96 0.00 30.24
2017/12/15 11:00 237 0.8 265 17.7 96 0.00 30.27
2017/12/15 10:00 107 0.6 213 13.2 95 0.00 30.29
2017/12/15 09:00 19 0.8 320 11.5 94 0.00 30.29
2017/12/15 08:00 0 0.5 335 11.9 94 0.00 30.29
2017/12/15 07:00 0 1.3 206 12.3 95 0.00 30.31
2017/12/15 06:00 0 0.7 13 13.1 95 0.00 30.33
2017/12/15 05:00 0 0.8 42 12.8 95 0.00 30.32
2017/12/15 04:00 0 0.9 194 13.6 95 0.00 30.34
2017/12/15 03:00 0 0.3 273 13.1 96 0.00 30.35
2017/12/15 02:00 0 0.6 8 14.9 94 0.00 30.35
2017/12/15 01:00 0 0.5 165 14.6 95 0.00 30.35
2017/12/15 00:00 0 1.1 63 14.8 96 0.00 30.36
2017/12/14 23:00 0 1.0 211 16.9 96 0.00 30.37
2017/12/14 22:00 0 1.3 85 19.5 92 0.00 30.37
2017/12/14 21:00 0 1.0 356 18.5 96 0.00 30.37
2017/12/14 20:00 0 0.4 283 19.2 97 0.00 30.36
2017/12/14 19:00 0 0.6 198 23.5 92 0.00 30.36